createdAt,value
2018-03-01T00:00:33.735Z,50.92
2018-03-01T00:03:00.467Z,56.70
2018-03-01T00:05:27.214Z,49.95
2018-03-01T00:07:53.977Z,43.58
2018-03-01T00:10:20.703Z,52.75
2018-03-01T00:12:48.352Z,57.78
2018-03-01T00:15:15.098Z,57.70
2018-03-01T00:17:41.835Z,49.40
2018-03-01T00:20:08.611Z,44.95
2018-03-01T00:22:36.195Z,45.58
2018-03-01T00:25:02.994Z,43.22
2018-03-01T00:27:29.740Z,41.78
2018-03-01T00:29:56.465Z,54.78
2018-03-01T00:32:23.203Z,43.15
2018-03-01T00:34:49.944Z,43.28
2018-03-01T00:37:16.681Z,48.90
2018-03-01T00:39:43.444Z,50.15
2018-03-01T00:42:10.179Z,46.85
2018-03-01T00:44:36.908Z,58.65
2018-03-01T00:47:03.654Z,44.25
2018-03-01T00:49:30.368Z,42.80
2018-03-01T00:51:57.161Z,56.17
2018-03-01T00:54:23.899Z,61.80
2018-03-01T00:56:50.665Z,47.42
2018-03-01T00:59:17.395Z,52.60
2018-03-01T01:01:44.149Z,41.85
2018-03-01T01:04:10.892Z,44.40
2018-03-01T01:06:37.646Z,42.85
2018-03-01T01:09:05.200Z,46.78
2018-03-01T01:11:32.031Z,40.65
2018-03-01T01:13:58.794Z,49.20
2018-03-01T01:16:25.544Z,48.10
2018-03-01T01:18:52.292Z,44.75
2018-03-01T01:21:19.020Z,48.17
2018-03-01T01:23:45.729Z,49.50
2018-03-01T01:26:12.452Z,48.45
2018-03-01T01:28:39.183Z,46.28
2018-03-01T01:31:05.912Z,48.25
2018-03-01T01:33:32.656Z,41.80
2018-03-01T01:35:59.391Z,52.60
2018-03-01T01:38:26.104Z,49.70
2018-03-01T01:40:52.878Z,48.72
2018-03-01T01:43:19.591Z,45.60
2018-03-01T01:45:46.358Z,41.72
2018-03-01T01:48:13.074Z,54.17
2018-03-01T01:50:45.596Z,48.50
2018-03-01T01:53:12.335Z,48.47
2018-03-01T01:55:39.049Z,40.00
2018-03-01T01:58:05.788Z,50.47
2018-03-01T02:00:32.539Z,47.00
2018-03-01T02:02:59.263Z,50.22
2018-03-01T02:05:25.990Z,55.20
2018-03-01T02:07:52.697Z,51.67
2018-03-01T02:10:19.443Z,47.20
2018-03-01T02:12:46.187Z,55.70
2018-03-01T02:15:12.915Z,54.00
2018-03-01T02:17:39.681Z,50.20
2018-03-01T02:20:06.444Z,49.60
2018-03-01T02:22:33.227Z,48.20
2018-03-01T02:24:59.982Z,46.53
2018-03-01T02:27:26.719Z,48.30
2018-03-01T02:29:53.469Z,43.65
2018-03-01T02:32:20.176Z,45.15
2018-03-01T02:34:46.951Z,43.10
2018-03-01T02:37:13.682Z,42.97
2018-03-01T02:39:40.428Z,54.58
2018-03-01T02:42:07.174Z,49.28
2018-03-01T02:44:33.915Z,43.65
2018-03-01T02:47:00.623Z,63.22
2018-03-01T02:49:27.361Z,47.17
2018-03-01T02:51:54.088Z,53.38
2018-03-01T02:54:20.898Z,48.08
2018-03-01T02:56:47.669Z,45.22
2018-03-01T02:59:14.401Z,56.65
2018-03-01T03:01:41.146Z,45.47
2018-03-01T03:04:07.925Z,43.45
2018-03-01T03:06:34.736Z,58.00
2018-03-01T03:09:01.481Z,42.50
2018-03-01T03:11:28.189Z,50.17
2018-03-01T03:13:54.924Z,55.90
2018-03-01T03:16:21.671Z,51.50
2018-03-01T03:18:48.395Z,42.28
2018-03-01T03:21:15.146Z,52.75
2018-03-01T03:23:41.887Z,42.58
2018-03-01T03:26:08.633Z,43.15
2018-03-01T03:28:35.375Z,45.88
2018-03-01T03:31:02.085Z,46.10
2018-03-01T03:33:28.815Z,50.85
2018-03-01T03:35:55.544Z,52.90
2018-03-01T03:38:22.287Z,48.53
2018-03-01T03:40:49.022Z,51.08
2018-03-01T03:43:15.743Z,44.97
2018-03-01T03:45:42.491Z,44.75
2018-03-01T03:48:09.221Z,49.90
2018-03-01T03:50:36.004Z,42.72
2018-03-01T03:53:02.778Z,60.22
2018-03-01T03:55:29.486Z,43.63
2018-03-01T03:57:56.219Z,48.92
2018-03-01T04:00:22.943Z,50.95
2018-03-01T04:02:49.679Z,49.05
2018-03-01T04:05:16.412Z,59.08
2018-03-01T04:07:43.170Z,62.53
2018-03-01T04:10:09.896Z,48.58
2018-03-01T04:12:36.613Z,46.47
2018-03-01T04:15:03.364Z,50.95
2018-03-01T04:17:30.103Z,46.88
2018-03-01T04:19:56.838Z,49.88
2018-03-01T04:22:23.578Z,46.95
2018-03-01T04:24:50.290Z,45.08
2018-03-01T04:27:17.033Z,43.63
2018-03-01T04:29:43.823Z,44.80
2018-03-01T04:32:10.552Z,44.85
2018-03-01T04:34:37.280Z,48.53
2018-03-01T04:37:04.031Z,54.17
2018-03-01T04:39:30.768Z,56.50
2018-03-01T04:41:57.529Z,53.60
2018-03-01T04:44:24.266Z,47.35
2018-03-01T04:46:51.002Z,45.85
2018-03-01T04:49:17.732Z,48.65
2018-03-01T04:51:44.497Z,46.80
2018-03-01T04:54:11.248Z,39.40
2018-03-01T04:56:37.967Z,48.58
2018-03-01T04:59:04.709Z,47.70
2018-03-01T05:01:31.452Z,75.30
2018-03-01T05:03:58.449Z,86.40
2018-03-01T05:06:25.200Z,55.67
2018-03-01T05:08:51.932Z,61.08
2018-03-01T05:11:18.676Z,59.25
2018-03-01T05:13:45.431Z,49.05
2018-03-01T05:16:12.220Z,53.67
2018-03-01T05:18:38.978Z,58.53
2018-03-01T05:21:05.735Z,48.15
2018-03-01T05:23:32.488Z,49.60
2018-03-01T05:25:59.212Z,53.92
2018-03-01T05:28:25.980Z,62.38
2018-03-01T05:30:52.828Z,55.67
2018-03-01T05:33:19.586Z,56.85
2018-03-01T05:35:46.310Z,68.72
2018-03-01T05:38:13.363Z,67.35
2018-03-01T05:40:40.276Z,66.37
2018-03-01T05:43:07.004Z,60.70
2018-03-01T05:45:33.760Z,59.55
2018-03-01T05:48:00.486Z,49.85
2018-03-01T05:50:27.222Z,54.55
2018-03-01T05:52:53.943Z,49.70
2018-03-01T05:55:20.662Z,41.88
2018-03-01T05:57:47.436Z,56.97
2018-03-01T06:00:14.151Z,55.90
2018-03-01T06:02:40.901Z,57.80
2018-03-01T06:05:07.621Z,48.87
2018-03-01T06:07:34.381Z,49.83
2018-03-01T06:10:01.120Z,60.00
2018-03-01T06:12:27.862Z,54.08
2018-03-01T06:14:54.600Z,60.30
2018-03-01T06:17:21.337Z,62.20
2018-03-01T06:19:48.067Z,75.35
2018-03-01T06:22:14.833Z,51.25
2018-03-01T06:24:41.577Z,55.53
2018-03-01T06:27:08.376Z,51.95
2018-03-01T06:29:35.110Z,56.35
2018-03-01T06:32:01.815Z,54.92
2018-03-01T06:34:28.525Z,57.10
2018-03-01T06:36:55.278Z,49.70
2018-03-01T06:39:22.002Z,61.88
2018-03-01T06:41:48.717Z,67.87
2018-03-01T06:44:15.454Z,49.08
2018-03-01T06:46:42.163Z,60.35
2018-03-01T06:49:08.932Z,58.13
2018-03-01T06:51:35.642Z,43.15
2018-03-01T06:54:02.361Z,54.20
2018-03-01T06:56:29.093Z,54.30
2018-03-01T06:58:55.830Z,56.53
2018-03-01T07:01:22.557Z,63.05
2018-03-01T07:03:49.302Z,60.85
2018-03-01T07:06:16.014Z,54.95
2018-03-01T07:08:42.747Z,66.87
2018-03-01T07:11:09.467Z,78.97
2018-03-01T07:13:36.209Z,70.28
2018-03-01T07:16:02.931Z,57.38
2018-03-01T07:18:29.867Z,62.00
2018-03-01T07:21:06.148Z,66.68
2018-03-01T07:23:46.266Z,63.05
2018-03-01T07:26:13.162Z,60.42
2018-03-01T07:28:39.931Z,78.00
2018-03-01T07:31:07.297Z,56.92
2018-03-01T07:33:34.042Z,63.97
2018-03-01T07:36:00.774Z,62.17
2018-03-01T07:38:27.529Z,67.68
2018-03-01T07:40:54.259Z,59.60
2018-03-01T07:43:20.963Z,64.20
2018-03-01T07:45:47.711Z,61.53
2018-03-01T07:48:14.451Z,64.53
2018-03-01T07:50:41.237Z,63.92
2018-03-01T07:53:07.961Z,73.30
2018-03-01T07:55:34.684Z,63.60
2018-03-01T07:58:01.708Z,59.70
2018-03-01T08:00:28.423Z,49.85
2018-03-01T08:02:55.175Z,59.22
2018-03-01T08:05:21.909Z,55.83
2018-03-01T08:07:48.679Z,52.20
2018-03-01T08:10:15.412Z,53.67
2018-03-01T08:12:42.118Z,57.17
2018-03-01T08:15:08.859Z,64.32
2018-03-01T08:17:35.590Z,58.30
2018-03-01T08:20:02.299Z,70.18
2018-03-01T08:22:29.068Z,77.12
2018-03-01T08:24:55.822Z,71.35
2018-03-01T08:27:22.532Z,57.65
2018-03-01T08:29:49.276Z,71.43
2018-03-01T08:32:16.015Z,62.28
2018-03-01T08:34:42.740Z,71.22
2018-03-01T08:37:10.054Z,56.30
2018-03-01T08:39:36.979Z,67.55
2018-03-01T08:42:03.723Z,69.05
2018-03-01T08:44:30.598Z,57.53
2018-03-01T08:46:57.303Z,62.50
2018-03-01T08:49:24.043Z,63.17
2018-03-01T08:51:50.773Z,65.03
2018-03-01T08:54:25.427Z,65.20
2018-03-01T08:56:52.164Z,59.58
2018-03-01T08:59:18.896Z,63.05
2018-03-01T09:01:45.713Z,62.90
2018-03-01T09:04:12.429Z,61.17
2018-03-01T09:06:39.171Z,66.50
2018-03-01T09:09:05.913Z,71.47
2018-03-01T09:11:32.637Z,60.47
2018-03-01T09:13:59.384Z,61.92
2018-03-01T09:16:26.096Z,70.70
2018-03-01T09:18:52.835Z,72.05
2018-03-01T09:21:19.578Z,77.03
2018-03-01T09:23:46.321Z,68.28
2018-03-01T09:26:13.056Z,71.55
2018-03-01T09:28:39.876Z,67.97
2018-03-01T09:31:06.613Z,62.60
2018-03-01T09:33:33.355Z,78.00
2018-03-01T09:36:00.095Z,80.18
2018-03-01T09:38:26.918Z,72.62
2018-03-01T09:40:53.630Z,62.15
2018-03-01T09:43:20.428Z,63.10
2018-03-01T09:45:47.233Z,65.47
2018-03-01T09:48:13.971Z,74.30
2018-03-01T09:50:45.151Z,69.50
2018-03-01T09:53:11.874Z,76.07
2018-03-01T09:55:38.620Z,65.55
2018-03-01T09:58:05.350Z,65.07
2018-03-01T10:00:32.105Z,62.80
2018-03-01T10:02:58.954Z,64.07
2018-03-01T10:05:25.702Z,73.70
2018-03-01T10:07:52.436Z,76.97
2018-03-01T10:10:19.200Z,68.35
2018-03-01T10:12:45.931Z,76.80
2018-03-01T10:15:12.677Z,80.35
2018-03-01T10:17:39.398Z,65.40
2018-03-01T10:20:06.109Z,67.78
2018-03-01T10:22:32.871Z,79.10
2018-03-01T10:24:59.614Z,73.22
2018-03-01T10:27:26.409Z,72.55
2018-03-01T10:29:53.119Z,79.62
2018-03-01T10:32:19.846Z,66.47
2018-03-01T10:34:46.685Z,79.70
2018-03-01T10:37:13.408Z,69.68
2018-03-01T10:39:40.165Z,66.53
2018-03-01T10:42:06.994Z,71.95
2018-03-01T10:44:33.776Z,69.47
2018-03-01T10:47:00.541Z,79.50
2018-03-01T10:49:27.791Z,71.37
2018-03-01T10:51:54.551Z,71.15
2018-03-01T10:54:21.258Z,76.90
2018-03-01T10:56:47.983Z,71.68
2018-03-01T10:59:14.743Z,75.68
2018-03-01T11:01:56.370Z,63.85
2018-03-01T11:04:23.209Z,84.60
2018-03-01T11:06:50.011Z,81.80
2018-03-01T11:09:16.839Z,82.82
2018-03-01T11:11:43.789Z,81.05
2018-03-01T11:14:10.541Z,78.72
2018-03-01T11:16:37.292Z,89.95
2018-03-01T11:19:04.051Z,80.10
2018-03-01T11:21:30.788Z,84.90
2018-03-01T11:23:57.567Z,86.12
2018-03-01T11:26:24.316Z,75.47
2018-03-01T11:28:51.111Z,79.40
2018-03-01T11:31:17.907Z,90.53
2018-03-01T11:33:44.649Z,83.62
2018-03-01T11:36:11.398Z,72.75
2018-03-01T11:38:38.131Z,74.25
2018-03-01T11:41:04.880Z,82.93
2018-03-01T11:43:31.618Z,91.28
2018-03-01T11:45:58.372Z,82.62
2018-03-01T11:48:25.214Z,81.63
2018-03-01T11:50:51.978Z,74.00
2018-03-01T11:53:18.724Z,79.32
2018-03-01T11:55:45.454Z,86.07
2018-03-01T11:58:12.212Z,91.07
2018-03-01T12:00:38.938Z,76.78
2018-03-01T12:03:05.738Z,82.75
2018-03-01T12:05:32.446Z,81.22
2018-03-01T12:07:59.171Z,88.18
2018-03-01T12:10:25.920Z,78.35
2018-03-01T12:12:54.364Z,78.50
2018-03-01T12:15:21.335Z,77.82
2018-03-01T12:17:48.077Z,80.40
2018-03-01T12:20:14.805Z,76.70
2018-03-01T12:22:41.559Z,76.35
2018-03-01T12:25:08.292Z,91.37
2018-03-01T12:27:38.127Z,90.43
2018-03-01T12:30:04.863Z,85.93
2018-03-01T12:32:31.583Z,78.12
2018-03-01T12:34:58.340Z,77.80
2018-03-01T12:37:25.056Z,73.57
2018-03-01T12:39:51.835Z,72.68
2018-03-01T12:42:18.590Z,69.18
2018-03-01T12:44:45.393Z,64.03
2018-03-01T12:47:12.126Z,72.43
2018-03-01T12:49:38.878Z,64.90
2018-03-01T12:52:05.713Z,77.20
2018-03-01T12:54:32.472Z,72.55
2018-03-01T12:56:59.262Z,80.75
2018-03-01T12:59:26.052Z,63.75
2018-03-01T13:01:52.814Z,61.33
2018-03-01T13:04:20.218Z,59.50
2018-03-01T13:06:46.987Z,71.75
2018-03-01T13:09:13.781Z,72.03
2018-03-01T13:11:40.560Z,75.62
2018-03-01T13:14:07.345Z,69.03
2018-03-01T13:16:34.139Z,69.78
2018-03-01T13:19:00.903Z,73.12
2018-03-01T13:21:27.671Z,71.30
2018-03-01T13:23:54.451Z,65.90
2018-03-01T13:26:21.231Z,73.12
2018-03-01T13:28:47.984Z,71.07
2018-03-01T13:31:26.491Z,71.00
2018-03-01T13:33:55.077Z,73.37
2018-03-01T13:36:21.866Z,74.95
2018-03-01T13:38:48.630Z,73.78
2018-03-01T13:41:15.370Z,68.90
2018-03-01T13:43:42.146Z,83.45
2018-03-01T13:46:08.946Z,68.97
2018-03-01T13:48:35.686Z,74.35
2018-03-01T13:51:02.448Z,78.03
2018-03-01T13:53:29.206Z,72.28
2018-03-01T13:55:55.940Z,71.20
2018-03-01T13:58:22.702Z,77.05
2018-03-01T14:00:49.450Z,66.10
2018-03-01T14:03:16.195Z,67.62
2018-03-01T14:05:58.731Z,72.93
2018-03-01T14:08:25.479Z,66.75
2018-03-01T14:10:52.220Z,66.03
2018-03-01T14:13:19.879Z,68.43
2018-03-01T14:15:46.648Z,71.50
2018-03-01T14:18:20.915Z,53.97
2018-03-01T14:20:53.442Z,59.97
2018-03-01T14:23:35.042Z,59.45
2018-03-01T14:26:11.683Z,51.13
2018-03-01T14:28:39.213Z,53.15
2018-03-01T14:31:05.978Z,54.20
2018-03-01T14:33:32.719Z,56.25
2018-03-01T14:35:59.457Z,50.90
2018-03-01T14:38:26.189Z,49.50
2018-03-01T14:40:52.911Z,59.70
2018-03-01T14:43:19.654Z,63.10
2018-03-01T14:45:46.388Z,65.50
2018-03-01T14:48:13.115Z,67.57
2018-03-01T14:50:39.853Z,59.40
2018-03-01T14:53:06.575Z,62.62
2018-03-01T14:55:33.306Z,66.20
2018-03-01T14:58:00.037Z,73.55
2018-03-01T15:00:26.751Z,65.03
2018-03-01T15:02:53.478Z,58.53
2018-03-01T15:05:20.200Z,67.72
2018-03-01T15:07:46.903Z,64.85
2018-03-01T15:10:13.647Z,67.03
2018-03-01T15:12:40.376Z,60.65
2018-03-01T15:15:07.118Z,68.62
2018-03-01T15:17:33.826Z,66.68
2018-03-01T15:20:00.552Z,65.80
2018-03-01T15:22:27.274Z,67.35
2018-03-01T15:24:54.003Z,57.35
2018-03-01T15:27:20.754Z,70.85
2018-03-01T15:29:47.463Z,63.45
2018-03-01T15:32:14.185Z,75.20
2018-03-01T15:34:40.924Z,62.53
2018-03-01T15:37:07.639Z,73.20
2018-03-01T15:39:34.386Z,70.25
2018-03-01T15:42:01.109Z,72.80
2018-03-01T15:44:27.827Z,64.03
2018-03-01T15:46:54.573Z,70.47
2018-03-01T15:49:21.283Z,64.32
2018-03-01T15:51:48.021Z,67.93
2018-03-01T15:54:14.745Z,68.80
2018-03-01T15:56:41.466Z,77.90
2018-03-01T15:59:08.200Z,70.93
2018-03-01T16:01:34.945Z,71.50
2018-03-01T16:04:01.684Z,62.50
2018-03-01T16:06:28.408Z,71.90
2018-03-01T16:08:55.138Z,73.05
2018-03-01T16:11:21.860Z,70.37
2018-03-01T16:13:48.597Z,70.37
2018-03-01T16:16:15.326Z,81.25
2018-03-01T16:18:42.084Z,73.53
2018-03-01T16:21:08.827Z,68.95
2018-03-01T16:23:35.578Z,79.43
2018-03-01T16:26:02.306Z,70.12
2018-03-01T16:28:29.053Z,71.05
2018-03-01T16:30:55.810Z,71.55
2018-03-01T16:33:22.535Z,62.62
2018-03-01T16:35:49.285Z,80.28
2018-03-01T16:38:16.022Z,67.62
2018-03-01T16:40:42.758Z,70.93
2018-03-01T16:43:09.512Z,70.65
2018-03-01T16:45:36.215Z,73.47
2018-03-01T16:48:02.987Z,64.75
2018-03-01T16:50:29.722Z,74.70
2018-03-01T16:52:56.427Z,70.82
2018-03-01T16:55:23.162Z,78.95
2018-03-01T16:57:49.998Z,76.32
2018-03-01T17:00:16.773Z,76.37
2018-03-01T17:02:43.484Z,75.05
2018-03-01T17:05:10.250Z,78.07
2018-03-01T17:07:36.987Z,87.62
2018-03-01T17:10:03.851Z,77.80
2018-03-01T17:12:30.592Z,82.55
2018-03-01T17:14:57.344Z,79.15
2018-03-01T17:17:24.133Z,75.55
2018-03-01T17:19:50.892Z,77.07
2018-03-01T17:22:17.651Z,77.57
2018-03-01T17:24:44.405Z,73.90
2018-03-01T17:27:11.143Z,79.82
2018-03-01T17:29:37.896Z,88.15
2018-03-01T17:32:04.647Z,72.53
2018-03-01T17:34:31.378Z,81.22
2018-03-01T17:36:58.134Z,74.20
2018-03-01T17:39:24.899Z,80.00
2018-03-01T17:41:51.721Z,81.22
2018-03-01T17:44:18.504Z,87.22
2018-03-01T17:46:45.225Z,95.12
2018-03-01T17:49:11.960Z,85.90
2018-03-01T17:51:38.719Z,80.07
2018-03-01T17:54:05.487Z,84.60
2018-03-01T17:56:32.256Z,85.20
2018-03-01T17:58:59.018Z,77.82
2018-03-01T18:01:25.738Z,88.57
2018-03-01T18:03:52.511Z,82.32
2018-03-01T18:06:19.268Z,82.43
2018-03-01T18:08:46.043Z,75.65
2018-03-01T18:11:12.786Z,89.85
2018-03-01T18:13:39.537Z,83.30
2018-03-01T18:16:06.283Z,76.55
2018-03-01T18:18:33.025Z,88.53
2018-03-01T18:20:59.815Z,72.03
2018-03-01T18:23:26.551Z,71.53
2018-03-01T18:25:53.348Z,91.32
2018-03-01T18:28:20.099Z,73.30
2018-03-01T18:30:46.891Z,84.53
2018-03-01T18:33:13.668Z,81.82
2018-03-01T18:35:40.442Z,85.00
2018-03-01T18:38:07.179Z,69.62
2018-03-01T18:40:33.944Z,78.95
2018-03-01T18:43:00.674Z,77.65
2018-03-01T18:45:27.436Z,88.53
2018-03-01T18:47:54.177Z,82.55
2018-03-01T18:50:21.195Z,91.43
2018-03-01T18:52:48.039Z,91.25
2018-03-01T18:55:14.860Z,82.57
2018-03-01T18:57:41.650Z,97.28
2018-03-01T19:00:08.443Z,88.45
2018-03-01T19:02:35.282Z,93.65
2018-03-01T19:05:02.073Z,95.55
2018-03-01T19:07:28.862Z,97.97
2018-03-01T19:09:55.683Z,94.20
2018-03-01T19:12:22.476Z,90.40
2018-03-01T19:14:49.318Z,103.40
2018-03-01T19:17:16.201Z,94.00
2018-03-01T19:19:42.983Z,96.20
2018-03-01T19:22:09.780Z,84.82
2018-03-01T19:24:37.468Z,88.53
2018-03-01T19:27:04.714Z,80.50
2018-03-01T19:29:31.537Z,98.05
2018-03-01T19:31:58.798Z,93.95
2018-03-01T19:34:25.621Z,99.43
2018-03-01T19:36:52.412Z,93.60
2018-03-01T19:39:19.187Z,99.37
2018-03-01T19:41:45.960Z,96.43
2018-03-01T19:44:12.762Z,102.53
2018-03-01T19:46:39.526Z,102.22
2018-03-01T19:49:06.297Z,103.57
2018-03-01T19:51:33.163Z,105.70
2018-03-01T19:53:59.940Z,106.25
2018-03-01T19:56:26.722Z,101.70
2018-03-01T19:58:53.489Z,95.85
2018-03-01T20:01:20.329Z,101.65
2018-03-01T20:03:47.104Z,104.45
2018-03-01T20:06:13.859Z,107.00
2018-03-01T20:08:40.629Z,96.60
2018-03-01T20:11:07.470Z,108.22
2018-03-01T20:13:34.236Z,98.55
2018-03-01T20:16:01.022Z,108.65
2018-03-01T20:18:27.791Z,101.97
2018-03-01T20:20:54.577Z,113.30
2018-03-01T20:23:21.330Z,106.57
2018-03-01T20:25:48.137Z,107.65
2018-03-01T20:28:14.961Z,116.97
2018-03-01T20:30:41.947Z,102.97
2018-03-01T20:33:12.884Z,109.55
2018-03-01T20:35:39.839Z,101.12
2018-03-01T20:38:06.794Z,100.90
2018-03-01T20:40:34.033Z,98.35
2018-03-01T20:43:00.796Z,106.05
2018-03-01T20:45:27.569Z,99.57
2018-03-01T20:47:54.348Z,101.65
2018-03-01T20:50:21.111Z,93.57
2018-03-01T20:52:48.018Z,103.75
2018-03-01T20:55:14.882Z,109.03
2018-03-01T20:57:41.723Z,115.60
2018-03-01T21:00:08.467Z,115.22
2018-03-01T21:02:35.312Z,120.28
2018-03-01T21:05:02.214Z,110.65
2018-03-01T21:07:29.437Z,98.10
2018-03-01T21:09:56.339Z,104.25
2018-03-01T21:12:23.177Z,103.15
2018-03-01T21:14:49.937Z,107.25
2018-03-01T21:17:22.596Z,109.68
2018-03-01T21:19:49.354Z,112.35
2018-03-01T21:22:16.170Z,104.78
2018-03-01T21:24:42.905Z,105.55
2018-03-01T21:27:09.761Z,106.87
2018-03-01T21:29:36.493Z,109.37
2018-03-01T21:32:03.252Z,104.70
2018-03-01T21:34:35.577Z,108.87
2018-03-01T21:37:02.368Z,113.93
2018-03-01T21:39:29.122Z,102.87
2018-03-01T21:41:56.013Z,111.70
2018-03-01T21:44:22.787Z,111.82
2018-03-01T21:46:55.389Z,111.57
2018-03-01T21:49:28.784Z,110.70
2018-03-01T21:51:55.514Z,115.93
2018-03-01T21:54:22.243Z,104.80
2018-03-01T21:56:48.990Z,107.70
2018-03-01T21:59:15.743Z,111.22
2018-03-01T22:01:42.582Z,115.40
2018-03-01T22:04:09.347Z,103.30
2018-03-01T22:06:36.116Z,106.35
2018-03-01T22:09:02.978Z,103.40
2018-03-01T22:11:29.701Z,107.72
2018-03-01T22:14:01.840Z,113.00
2018-03-01T22:16:29.954Z,105.87
2018-03-01T22:18:56.743Z,113.43
2018-03-01T22:21:23.524Z,105.28
2018-03-01T22:23:50.251Z,101.60
2018-03-01T22:26:17.005Z,97.50
2018-03-01T22:28:43.740Z,110.18
2018-03-01T22:31:10.471Z,98.05
2018-03-01T22:33:37.213Z,108.20
2018-03-01T22:36:03.981Z,106.95
2018-03-01T22:38:30.732Z,101.55
2018-03-01T22:40:57.484Z,104.93
2018-03-01T22:43:24.219Z,99.10
2018-03-01T22:45:50.959Z,98.68
2018-03-01T22:48:17.682Z,109.85
2018-03-01T22:50:44.443Z,100.53
2018-03-01T22:53:11.191Z,107.57
2018-03-01T22:55:37.928Z,103.82
2018-03-01T22:58:04.720Z,108.18
2018-03-01T23:00:37.416Z,95.70
2018-03-01T23:03:04.150Z,104.75
2018-03-01T23:05:30.907Z,108.65
2018-03-01T23:07:57.637Z,100.85
2018-03-01T23:10:24.465Z,106.40
2018-03-01T23:12:51.228Z,114.62
2018-03-01T23:15:17.958Z,109.45
2018-03-01T23:17:44.714Z,108.03
2018-03-01T23:20:11.459Z,102.72
2018-03-01T23:22:38.212Z,93.72
2018-03-01T23:25:04.979Z,99.65
2018-03-01T23:27:31.725Z,112.35
2018-03-01T23:29:58.479Z,105.40
2018-03-01T23:32:25.231Z,103.28
2018-03-01T23:34:52.011Z,103.75
2018-03-01T23:37:18.741Z,105.90
2018-03-01T23:39:45.486Z,106.95
2018-03-01T23:42:12.265Z,110.32
2018-03-01T23:44:39.024Z,113.80
2018-03-01T23:47:05.768Z,105.12
2018-03-01T23:49:32.504Z,107.93
2018-03-01T23:51:59.291Z,124.43
2018-03-01T23:54:26.042Z,124.22
2018-03-01T23:56:52.772Z,101.78
2018-03-01T23:59:19.538Z,111.35
